createdAt,value
2019-06-26T00:00:07.015Z,34.45
2019-06-26T00:02:35.220Z,32.15
2019-06-26T00:05:04.507Z,33.98
2019-06-26T00:07:32.672Z,35.58
2019-06-26T00:10:00.823Z,33.40
2019-06-26T00:12:28.978Z,34.20
2019-06-26T00:14:57.098Z,32.05
2019-06-26T00:17:25.363Z,34.83
2019-06-26T00:19:53.494Z,34.70
2019-06-26T00:22:21.644Z,34.88
2019-06-26T00:24:49.787Z,35.10
2019-06-26T00:27:17.919Z,35.33
2019-06-26T00:29:46.087Z,35.83
2019-06-26T00:32:14.240Z,34.65
2019-06-26T00:34:42.346Z,33.60
2019-06-26T00:37:10.505Z,33.00
2019-06-26T00:39:38.640Z,33.78
2019-06-26T00:42:06.785Z,35.10
2019-06-26T00:44:34.942Z,35.75
2019-06-26T00:47:03.080Z,37.00
2019-06-26T00:49:31.236Z,39.63
2019-06-26T00:51:59.373Z,36.25
2019-06-26T00:54:27.532Z,38.58
2019-06-26T00:56:55.687Z,38.15
2019-06-26T00:59:23.884Z,35.17
2019-06-26T01:01:52.206Z,41.25
2019-06-26T01:04:22.079Z,39.00
2019-06-26T01:06:50.217Z,41.50
2019-06-26T01:09:18.346Z,43.98
2019-06-26T01:11:46.482Z,43.00
2019-06-26T01:14:14.610Z,47.73
2019-06-26T01:16:42.755Z,45.48
2019-06-26T01:19:10.894Z,49.27
2019-06-26T01:21:39.027Z,52.25
2019-06-26T01:24:07.173Z,52.38
2019-06-26T01:26:35.469Z,55.15
2019-06-26T01:29:03.674Z,58.17
2019-06-26T01:31:31.809Z,62.20
2019-06-26T01:33:59.956Z,56.10
2019-06-26T01:36:28.078Z,67.60
2019-06-26T01:38:56.228Z,68.37
2019-06-26T01:41:24.358Z,65.52
2019-06-26T01:43:52.497Z,66.63
2019-06-26T01:46:20.635Z,64.85
2019-06-26T01:48:48.803Z,65.32
2019-06-26T01:51:17.252Z,68.90
2019-06-26T01:53:45.440Z,67.72
2019-06-26T01:56:13.610Z,69.55
2019-06-26T01:58:41.775Z,72.25
2019-06-26T02:01:09.919Z,71.90
2019-06-26T02:03:38.074Z,75.87
2019-06-26T02:06:06.219Z,76.40
2019-06-26T02:08:34.357Z,76.65
2019-06-26T02:11:02.666Z,73.37
2019-06-26T02:13:30.813Z,75.30
2019-06-26T02:15:58.960Z,85.20
2019-06-26T02:18:45.703Z,83.30
2019-06-26T02:21:13.855Z,83.93
2019-06-26T02:23:41.998Z,82.47
2019-06-26T02:26:10.189Z,85.77
2019-06-26T02:28:38.399Z,84.63
2019-06-26T02:31:06.533Z,88.20
2019-06-26T02:33:34.674Z,87.23
2019-06-26T02:36:02.808Z,88.93
2019-06-26T02:38:30.936Z,86.53
2019-06-26T02:40:59.071Z,90.53
2019-06-26T02:43:27.227Z,91.70
2019-06-26T02:45:55.355Z,91.63
2019-06-26T02:48:23.514Z,93.77
2019-06-26T02:50:51.664Z,85.60
2019-06-26T02:53:19.804Z,87.57
2019-06-26T02:55:47.946Z,80.20
2019-06-26T02:58:16.108Z,96.57
2019-06-26T03:00:44.243Z,81.10
2019-06-26T03:03:12.384Z,97.07
2019-06-26T03:05:40.514Z,90.63
2019-06-26T03:08:08.671Z,102.63
2019-06-26T03:10:36.802Z,97.53
2019-06-26T03:13:04.958Z,96.00
2019-06-26T03:15:33.093Z,99.60
2019-06-26T03:18:01.253Z,98.83
2019-06-26T03:20:31.037Z,105.03
2019-06-26T03:22:59.167Z,108.40
2019-06-26T03:25:27.315Z,100.87
2019-06-26T03:27:55.467Z,106.40
2019-06-26T03:30:23.003Z,110.10
2019-06-26T03:32:51.135Z,106.37
2019-06-26T03:35:19.280Z,101.63
2019-06-26T03:37:47.446Z,101.07
2019-06-26T03:40:15.663Z,112.80
2019-06-26T03:42:43.791Z,104.07
2019-06-26T03:45:25.261Z,104.43
2019-06-26T03:47:41.879Z,111.40
2019-06-26T03:50:10.105Z,107.43
2019-06-26T03:52:38.335Z,113.20
2019-06-26T03:55:06.507Z,103.13
2019-06-26T03:57:35.486Z,110.67
2019-06-26T04:00:05.351Z,110.77
2019-06-26T04:02:33.529Z,108.30
2019-06-26T04:05:01.682Z,98.53
2019-06-26T04:07:30.141Z,102.43
2019-06-26T04:09:58.272Z,109.60
2019-06-26T04:12:26.431Z,109.63
2019-06-26T04:14:54.583Z,99.97
2019-06-26T04:17:22.724Z,94.60
2019-06-26T04:19:50.861Z,99.57
2019-06-26T04:22:19.097Z,97.23
2019-06-26T04:24:47.214Z,93.23
2019-06-26T04:27:15.363Z,102.70
2019-06-26T04:29:43.497Z,89.97
2019-06-26T04:32:11.638Z,92.57
2019-06-26T04:34:40.075Z,86.63
2019-06-26T04:37:08.196Z,96.23
2019-06-26T04:39:36.340Z,97.27
2019-06-26T04:42:04.476Z,81.23
2019-06-26T04:44:32.619Z,90.93
2019-06-26T04:47:00.761Z,89.27
2019-06-26T04:49:28.912Z,89.70
2019-06-26T04:51:57.143Z,85.17
2019-06-26T04:54:25.371Z,79.40
2019-06-26T04:56:53.785Z,82.00
2019-06-26T04:59:21.945Z,84.87
2019-06-26T05:01:50.097Z,72.43
2019-06-26T05:04:18.211Z,83.80
2019-06-26T05:06:46.358Z,77.63
2019-06-26T05:09:14.506Z,76.80
2019-06-26T05:11:42.679Z,89.63
2019-06-26T05:14:10.806Z,77.67
2019-06-26T05:16:39.311Z,74.90
2019-06-26T05:19:07.794Z,75.57
2019-06-26T05:21:36.047Z,74.47
2019-06-26T05:24:04.211Z,80.33
2019-06-26T05:26:32.342Z,74.00
2019-06-26T05:29:00.479Z,68.23
2019-06-26T05:31:28.623Z,66.07
2019-06-26T05:33:56.759Z,66.47
2019-06-26T05:36:24.925Z,76.53
2019-06-26T05:38:53.060Z,75.43
2019-06-26T05:41:21.206Z,67.70
2019-06-26T05:43:49.328Z,68.97
2019-06-26T05:46:30.544Z,60.20
2019-06-26T05:48:48.881Z,59.60
2019-06-26T05:51:17.122Z,64.20
2019-06-26T05:53:45.273Z,66.30
2019-06-26T05:56:13.418Z,60.95
2019-06-26T05:58:41.555Z,65.33
2019-06-26T06:01:09.752Z,60.77
2019-06-26T06:03:37.910Z,61.07
2019-06-26T06:06:06.405Z,60.57
2019-06-26T06:08:36.288Z,61.30
2019-06-26T06:11:04.487Z,58.23
2019-06-26T06:13:32.629Z,55.80
2019-06-26T06:16:00.759Z,51.13
2019-06-26T06:18:28.884Z,48.70
2019-06-26T06:20:57.006Z,44.00
2019-06-26T06:23:25.164Z,39.80
2019-06-26T06:25:53.287Z,37.53
2019-06-26T06:28:21.504Z,27.73
2019-06-26T06:30:49.814Z,27.20
2019-06-26T06:33:17.944Z,26.77
2019-06-26T06:35:46.076Z,23.87
2019-06-26T06:38:14.214Z,24.07
2019-06-26T06:40:42.335Z,22.60
2019-06-26T06:43:10.457Z,21.62
2019-06-26T06:45:38.941Z,20.68
2019-06-26T06:48:07.059Z,19.57
2019-06-26T06:50:35.211Z,19.30
2019-06-26T06:53:07.353Z,18.50
2019-06-26T06:55:35.519Z,19.20
2019-06-26T06:58:03.735Z,17.75
2019-06-26T07:00:31.863Z,17.40
2019-06-26T07:03:00.004Z,16.40
2019-06-26T07:05:28.195Z,16.05
2019-06-26T07:07:56.345Z,15.78
2019-06-26T07:10:24.494Z,15.00
2019-06-26T07:12:52.695Z,14.87
2019-06-26T07:15:21.008Z,14.95
2019-06-26T07:17:49.130Z,14.47
2019-06-26T07:20:17.448Z,11.50
2019-06-26T07:22:45.583Z,14.05
2019-06-26T07:25:13.721Z,13.68
2019-06-26T07:27:41.855Z,10.98
2019-06-26T07:30:10.273Z,12.10
2019-06-26T07:32:38.432Z,11.80
2019-06-26T07:35:07.435Z,12.30
2019-06-26T07:37:35.581Z,12.10
2019-06-26T07:40:05.027Z,12.30
2019-06-26T07:42:33.205Z,12.45
2019-06-26T07:45:01.442Z,13.08
2019-06-26T07:47:42.557Z,12.40
2019-06-26T07:49:59.510Z,13.30
2019-06-26T07:52:27.652Z,12.43
2019-06-26T07:54:55.783Z,12.78
2019-06-26T07:57:23.924Z,12.07
2019-06-26T07:59:52.078Z,11.60
2019-06-26T08:02:20.197Z,11.50
2019-06-26T08:04:48.326Z,11.75
2019-06-26T08:07:16.472Z,11.38
2019-06-26T08:09:44.608Z,10.58
2019-06-26T08:12:12.739Z,12.65
2019-06-26T08:14:41.126Z,12.55
2019-06-26T08:17:09.497Z,12.37
2019-06-26T08:19:37.623Z,12.47
2019-06-26T08:22:06.000Z,11.60
2019-06-26T08:24:34.133Z,12.93
2019-06-26T08:27:02.391Z,12.90
2019-06-26T08:29:30.513Z,10.80
2019-06-26T08:31:58.653Z,12.75
2019-06-26T08:34:26.783Z,12.25
2019-06-26T08:36:55.231Z,11.55
2019-06-26T08:39:23.358Z,12.85
2019-06-26T08:41:51.515Z,11.78
2019-06-26T08:44:19.675Z,12.20
2019-06-26T08:46:47.791Z,12.30
2019-06-26T08:49:25.380Z,11.63
2019-06-26T08:51:45.788Z,10.70
2019-06-26T08:54:13.929Z,12.25
2019-06-26T08:56:42.145Z,12.13
2019-06-26T08:59:10.279Z,13.38
2019-06-26T09:01:38.426Z,12.30
2019-06-26T09:04:06.568Z,11.78
2019-06-26T09:06:34.704Z,12.00
2019-06-26T09:09:02.867Z,11.48
2019-06-26T09:11:31.012Z,11.45
2019-06-26T09:13:59.145Z,11.10
2019-06-26T09:16:27.267Z,11.20
2019-06-26T09:18:55.408Z,11.60
2019-06-26T09:21:23.834Z,11.73
2019-06-26T09:23:52.195Z,12.45
2019-06-26T09:26:20.448Z,11.20
2019-06-26T09:28:48.650Z,11.45
2019-06-26T09:31:16.795Z,11.30
2019-06-26T09:33:44.916Z,12.55
2019-06-26T09:36:13.058Z,11.55
2019-06-26T09:38:41.186Z,12.63
2019-06-26T09:41:09.332Z,12.95
2019-06-26T09:43:37.487Z,13.45
2019-06-26T09:46:05.961Z,11.57
2019-06-26T09:48:34.103Z,12.43
2019-06-26T09:51:02.239Z,11.40
2019-06-26T09:53:45.903Z,12.37
2019-06-26T09:56:00.294Z,11.33
2019-06-26T09:58:28.431Z,13.70
2019-06-26T10:00:56.857Z,12.78
2019-06-26T10:03:25.023Z,13.30
2019-06-26T10:05:53.147Z,13.28
2019-06-26T10:08:21.743Z,11.88
2019-06-26T10:10:52.738Z,12.13
2019-06-26T10:13:20.877Z,12.50
2019-06-26T10:15:49.011Z,11.83
2019-06-26T10:18:17.430Z,11.88
2019-06-26T10:20:45.549Z,12.45
2019-06-26T10:23:13.782Z,11.48
2019-06-26T10:25:41.908Z,11.83
2019-06-26T10:28:10.040Z,12.90
2019-06-26T10:30:38.170Z,12.80
2019-06-26T10:33:06.310Z,13.13
2019-06-26T10:35:34.439Z,12.90
2019-06-26T10:38:02.593Z,11.73
2019-06-26T10:40:31.032Z,12.37
2019-06-26T10:43:00.028Z,13.45
2019-06-26T10:45:28.231Z,13.25
2019-06-26T10:47:56.396Z,14.40
2019-06-26T10:50:24.580Z,17.52
2019-06-26T10:52:52.717Z,15.13
2019-06-26T10:55:20.847Z,12.95
2019-06-26T10:57:48.988Z,10.95
2019-06-26T11:00:17.516Z,14.05
2019-06-26T11:02:45.822Z,14.07
2019-06-26T11:05:14.325Z,14.35
2019-06-26T11:07:42.464Z,14.03
2019-06-26T11:10:13.170Z,16.00
2019-06-26T11:12:41.375Z,14.87
2019-06-26T11:15:09.586Z,15.32
2019-06-26T11:17:37.722Z,14.60
2019-06-26T11:20:06.427Z,13.95
2019-06-26T11:22:34.827Z,15.03
2019-06-26T11:25:03.059Z,14.45
2019-06-26T11:27:31.255Z,13.43
2019-06-26T11:29:59.418Z,14.90
2019-06-26T11:32:27.610Z,14.60
2019-06-26T11:34:55.731Z,15.40
2019-06-26T11:37:23.960Z,15.18
2019-06-26T11:39:52.163Z,16.67
2019-06-26T11:42:20.326Z,17.07
2019-06-26T11:44:48.552Z,16.27
2019-06-26T11:47:16.748Z,15.45
2019-06-26T11:49:58.974Z,15.23
2019-06-26T11:52:14.741Z,16.77
2019-06-26T11:54:42.987Z,17.35
2019-06-26T11:57:11.146Z,16.95
2019-06-26T11:59:39.349Z,15.85
2019-06-26T12:02:07.496Z,14.87
2019-06-26T12:04:35.624Z,15.53
2019-06-26T12:07:03.860Z,14.75
2019-06-26T12:09:31.995Z,17.70
2019-06-26T12:12:00.147Z,15.80
2019-06-26T12:14:28.498Z,15.35
2019-06-26T12:16:56.853Z,15.98
2019-06-26T12:19:25.009Z,15.05
2019-06-26T12:21:53.134Z,14.80
2019-06-26T12:24:21.280Z,15.32
2019-06-26T12:26:49.391Z,16.93
2019-06-26T12:29:17.895Z,15.72
2019-06-26T12:31:46.034Z,16.17
2019-06-26T12:34:14.178Z,15.20
2019-06-26T12:36:42.312Z,16.40
2019-06-26T12:39:10.481Z,15.25
2019-06-26T12:41:38.644Z,15.08
2019-06-26T12:44:06.772Z,16.17
2019-06-26T12:46:35.725Z,13.93
2019-06-26T12:49:03.973Z,14.50
2019-06-26T12:51:32.123Z,15.63
2019-06-26T12:54:00.256Z,15.48
2019-06-26T12:56:28.483Z,15.68
2019-06-26T12:58:59.854Z,14.75
2019-06-26T13:01:26.479Z,13.80
2019-06-26T13:03:54.628Z,13.30
2019-06-26T13:06:22.772Z,12.60
2019-06-26T13:08:50.916Z,15.00
2019-06-26T13:11:19.038Z,14.83
2019-06-26T13:14:01.339Z,14.15
2019-06-26T13:16:17.053Z,13.55
2019-06-26T13:18:45.174Z,12.30
2019-06-26T13:21:13.317Z,11.80
2019-06-26T13:23:41.489Z,10.88
2019-06-26T13:26:09.698Z,10.95
2019-06-26T13:28:37.844Z,10.00
2019-06-26T13:31:05.960Z,10.50
2019-06-26T13:33:34.183Z,10.35
2019-06-26T13:36:02.339Z,9.95
2019-06-26T13:38:30.452Z,9.90
2019-06-26T13:40:58.600Z,9.68
2019-06-26T13:43:26.733Z,8.78
2019-06-26T13:45:58.467Z,8.40
2019-06-26T13:48:24.962Z,8.00
2019-06-26T13:51:08.127Z,8.25
2019-06-26T13:53:23.250Z,8.65
2019-06-26T13:55:51.379Z,8.43
2019-06-26T13:58:19.508Z,7.78
2019-06-26T14:00:47.670Z,6.22
2019-06-26T14:03:15.791Z,6.25
2019-06-26T14:05:44.002Z,6.42
2019-06-26T14:08:12.212Z,6.53
2019-06-26T14:10:40.353Z,5.67
2019-06-26T14:13:08.484Z,5.42
2019-06-26T14:15:36.606Z,5.22
2019-06-26T14:18:04.741Z,4.60
2019-06-26T14:20:32.894Z,4.92
2019-06-26T14:23:01.082Z,4.58
2019-06-26T14:25:29.243Z,4.72
2019-06-26T14:27:57.435Z,5.30
2019-06-26T14:30:27.956Z,4.50
2019-06-26T14:32:55.503Z,4.92
2019-06-26T14:35:23.630Z,4.92
2019-06-26T14:37:51.766Z,4.70
2019-06-26T14:40:21.023Z,4.87
2019-06-26T14:42:49.252Z,4.87
2019-06-26T14:45:17.597Z,5.15
2019-06-26T14:47:45.773Z,5.55
2019-06-26T14:50:14.428Z,4.53
2019-06-26T14:52:45.801Z,5.33
2019-06-26T14:55:12.682Z,5.05
2019-06-26T14:57:41.016Z,5.00
2019-06-26T15:00:09.669Z,4.60
2019-06-26T15:02:37.818Z,4.30
2019-06-26T15:05:06.360Z,4.70
2019-06-26T15:07:34.530Z,4.28
2019-06-26T15:10:03.115Z,3.98
2019-06-26T15:12:31.258Z,3.72
2019-06-26T15:14:59.394Z,4.17
2019-06-26T15:17:29.322Z,3.77
2019-06-26T15:19:57.967Z,4.03
2019-06-26T15:22:26.092Z,3.60
2019-06-26T15:24:54.276Z,3.60
2019-06-26T15:27:22.390Z,3.37
2019-06-26T15:29:50.645Z,3.05
2019-06-26T15:32:19.076Z,2.42
2019-06-26T15:34:47.485Z,2.83
2019-06-26T15:37:16.132Z,2.85
2019-06-26T15:39:44.593Z,2.85
2019-06-26T15:42:13.053Z,3.15
2019-06-26T15:44:41.230Z,3.33
2019-06-26T15:47:09.467Z,2.80
2019-06-26T15:49:37.646Z,2.85
2019-06-26T15:52:15.083Z,2.55
2019-06-26T15:54:35.736Z,2.72
2019-06-26T15:57:03.881Z,3.15
2019-06-26T15:59:32.084Z,3.40
2019-06-26T16:02:00.227Z,3.27
2019-06-26T16:04:28.342Z,3.52
2019-06-26T16:06:56.479Z,2.50
2019-06-26T16:09:24.619Z,2.33
2019-06-26T16:11:52.818Z,2.80
2019-06-26T16:14:21.014Z,3.40
2019-06-26T16:16:51.403Z,3.17
2019-06-26T16:19:21.238Z,2.75
2019-06-26T16:21:49.357Z,2.62
2019-06-26T16:24:17.484Z,2.75
2019-06-26T16:26:45.672Z,2.90
2019-06-26T16:29:13.825Z,3.47
2019-06-26T16:31:42.003Z,3.00
2019-06-26T16:34:10.159Z,3.22
2019-06-26T16:36:38.300Z,2.70
2019-06-26T16:39:07.318Z,2.83
2019-06-26T16:41:35.924Z,2.72
2019-06-26T16:44:04.621Z,2.77
2019-06-26T16:46:32.765Z,2.60
2019-06-26T16:49:01.171Z,2.70
2019-06-26T16:51:29.771Z,2.60
2019-06-26T16:53:57.964Z,2.55
2019-06-26T16:56:28.766Z,3.30
2019-06-26T16:58:56.902Z,3.45
2019-06-26T17:01:25.331Z,3.45
2019-06-26T17:03:53.575Z,3.30
2019-06-26T17:06:21.718Z,3.30
2019-06-26T17:08:49.846Z,3.20
2019-06-26T17:11:18.035Z,3.75
2019-06-26T17:13:46.183Z,3.25
2019-06-26T17:16:14.363Z,3.20
2019-06-26T17:18:44.294Z,2.52
2019-06-26T17:22:01.795Z,2.33
2019-06-26T17:24:52.958Z,2.40
2019-06-26T17:27:12.367Z,2.20
2019-06-26T17:29:43.208Z,2.00
2019-06-26T17:32:10.806Z,2.58
2019-06-26T17:34:41.314Z,2.20
2019-06-26T17:37:09.447Z,2.40
2019-06-26T17:39:37.581Z,2.42
2019-06-26T17:42:07.880Z,2.37
2019-06-26T17:44:36.087Z,2.25
2019-06-26T17:47:05.450Z,2.20
2019-06-26T17:49:33.807Z,2.20
2019-06-26T17:52:04.040Z,2.17
2019-06-26T17:54:33.743Z,2.20
2019-06-26T17:57:09.838Z,2.50
2019-06-26T17:59:37.976Z,3.17
2019-06-26T18:02:06.130Z,2.30
2019-06-26T18:04:46.643Z,2.77
2019-06-26T18:07:14.781Z,2.40
2019-06-26T18:09:42.955Z,3.08
2019-06-26T18:12:11.084Z,2.40
2019-06-26T18:14:42.945Z,2.65
2019-06-26T18:17:21.622Z,2.45
2019-06-26T18:19:39.074Z,2.70
2019-06-26T18:22:07.216Z,2.80
2019-06-26T18:24:35.378Z,3.10
2019-06-26T18:27:03.665Z,2.80
2019-06-26T18:29:31.819Z,2.70
2019-06-26T18:31:59.953Z,2.80
2019-06-26T18:34:28.112Z,3.55
2019-06-26T18:36:56.406Z,3.12
2019-06-26T18:39:24.733Z,2.95
2019-06-26T18:41:52.868Z,2.98
2019-06-26T18:44:21.001Z,3.02
2019-06-26T18:46:49.137Z,2.70
2019-06-26T18:49:17.326Z,2.83
2019-06-26T18:51:45.484Z,3.22
2019-06-26T18:54:13.614Z,3.02
2019-06-26T18:56:41.767Z,2.80
2019-06-26T18:59:09.941Z,3.00
2019-06-26T19:01:38.151Z,3.45
2019-06-26T19:04:06.283Z,2.80
2019-06-26T19:06:34.421Z,3.17
2019-06-26T19:09:02.871Z,2.58
2019-06-26T19:11:31.089Z,3.10
2019-06-26T19:14:14.856Z,3.30
2019-06-26T19:16:43.280Z,2.95
2019-06-26T19:19:12.482Z,3.10
2019-06-26T19:21:40.712Z,3.33
2019-06-26T19:24:10.382Z,3.97
2019-06-26T19:26:38.812Z,3.40
2019-06-26T19:29:07.063Z,3.00
2019-06-26T19:31:35.208Z,3.53
2019-06-26T19:34:03.751Z,3.00
2019-06-26T19:36:32.041Z,3.53
2019-06-26T19:39:00.459Z,3.30
2019-06-26T19:41:28.618Z,3.20
2019-06-26T19:43:56.757Z,3.50
2019-06-26T19:46:25.022Z,3.30
2019-06-26T19:48:53.313Z,3.27
2019-06-26T19:51:21.487Z,3.33
2019-06-26T19:53:51.266Z,3.37
2019-06-26T19:56:20.271Z,3.10
2019-06-26T19:58:52.322Z,3.23
2019-06-26T20:01:20.505Z,3.10
2019-06-26T20:03:48.778Z,3.23
2019-06-26T20:06:16.898Z,3.03
2019-06-26T20:08:54.409Z,2.63
2019-06-26T20:11:15.014Z,3.07
2019-06-26T20:13:43.153Z,3.53
2019-06-26T20:16:11.294Z,3.50
2019-06-26T20:18:39.575Z,3.40
2019-06-26T20:21:07.698Z,3.83
2019-06-26T20:23:35.863Z,3.70
2019-06-26T20:26:04.129Z,3.60
2019-06-26T20:28:32.318Z,3.75
2019-06-26T20:31:02.767Z,3.40
2019-06-26T20:33:30.405Z,4.33
2019-06-26T20:35:58.551Z,3.63
2019-06-26T20:38:26.679Z,3.47
2019-06-26T20:40:54.816Z,4.37
2019-06-26T20:43:22.947Z,4.43
2019-06-26T20:45:51.413Z,4.40
2019-06-26T20:48:19.586Z,4.10
2019-06-26T20:50:47.718Z,3.43
2019-06-26T20:53:15.885Z,4.10
2019-06-26T20:55:44.012Z,3.80
2019-06-26T20:58:12.161Z,3.97
2019-06-26T21:00:40.304Z,3.80
2019-06-26T21:03:08.430Z,4.17
2019-06-26T21:05:36.681Z,4.40
2019-06-26T21:08:05.076Z,4.00
2019-06-26T21:10:33.623Z,3.90
2019-06-26T21:13:02.061Z,4.03
2019-06-26T21:15:30.499Z,5.03
2019-06-26T21:17:58.851Z,4.23
2019-06-26T21:20:28.801Z,4.07
2019-06-26T21:23:00.729Z,4.60
2019-06-26T21:25:29.105Z,4.60
2019-06-26T21:28:02.609Z,4.87
2019-06-26T21:30:32.086Z,4.47
2019-06-26T21:33:00.410Z,4.47
2019-06-26T21:35:28.864Z,4.93
2019-06-26T21:38:02.286Z,4.87
2019-06-26T21:40:33.854Z,4.97
2019-06-26T21:43:01.974Z,4.73
2019-06-26T21:45:30.113Z,5.30
2019-06-26T21:47:58.265Z,3.93
2019-06-26T21:50:28.957Z,5.43
2019-06-26T21:52:56.830Z,5.40
2019-06-26T21:55:34.103Z,4.73
2019-06-26T21:58:08.039Z,5.63
2019-06-26T22:00:36.268Z,4.77
2019-06-26T22:03:04.979Z,5.30
2019-06-26T22:05:33.098Z,5.60
2019-06-26T22:08:01.227Z,4.43
2019-06-26T22:10:29.362Z,4.87
2019-06-26T22:12:57.832Z,4.83
2019-06-26T22:15:26.422Z,4.77
2019-06-26T22:17:54.899Z,5.47
2019-06-26T22:20:23.108Z,5.43
2019-06-26T22:22:51.267Z,4.70
2019-06-26T22:25:19.396Z,5.10
2019-06-26T22:27:47.548Z,4.73
2019-06-26T22:30:15.946Z,4.43
2019-06-26T22:32:44.125Z,4.90
2019-06-26T22:35:13.239Z,4.30
2019-06-26T22:37:41.421Z,4.17
2019-06-26T22:40:09.826Z,4.97
2019-06-26T22:42:37.976Z,4.67
2019-06-26T22:45:06.481Z,4.80
2019-06-26T22:47:34.661Z,4.13
2019-06-26T22:50:03.392Z,4.60
2019-06-26T22:52:31.520Z,4.50
2019-06-26T22:54:59.668Z,4.37
2019-06-26T22:57:27.869Z,4.77
2019-06-26T22:59:55.999Z,4.77
2019-06-26T23:02:24.131Z,4.70
2019-06-26T23:05:04.900Z,4.07
2019-06-26T23:07:33.091Z,4.30
2019-06-26T23:10:01.463Z,4.30
2019-06-26T23:12:29.765Z,4.23
2019-06-26T23:14:57.897Z,4.07
2019-06-26T23:17:26.019Z,4.37
2019-06-26T23:19:54.145Z,4.57
2019-06-26T23:22:22.283Z,3.97
2019-06-26T23:24:50.411Z,4.30
2019-06-26T23:27:18.803Z,3.80
2019-06-26T23:29:47.002Z,4.10
2019-06-26T23:32:15.156Z,4.13
2019-06-26T23:34:43.282Z,4.17
2019-06-26T23:37:11.435Z,4.17
2019-06-26T23:39:39.581Z,4.10
2019-06-26T23:42:07.700Z,4.10
2019-06-26T23:44:35.865Z,4.17
2019-06-26T23:47:04.059Z,4.00
2019-06-26T23:49:32.182Z,4.20
2019-06-26T23:52:00.315Z,4.03
2019-06-26T23:54:28.450Z,4.90
2019-06-26T23:56:56.586Z,4.40
2019-06-26T23:59:24.719Z,4.67
